createdAt,value
2019-03-12T00:00:43.993Z,99336.32
2019-03-12T00:03:13.541Z,99335.64
2019-03-12T00:05:43.084Z,99330.48
2019-03-12T00:08:12.688Z,99327.16
2019-03-12T00:10:42.412Z,99327.33
2019-03-12T00:13:12.050Z,99323.80
2019-03-12T00:15:41.575Z,99321.81
2019-03-12T00:18:11.099Z,99311.12
2019-03-12T00:20:40.652Z,99317.46
2019-03-12T00:23:10.185Z,99318.81
2019-03-12T00:25:39.740Z,99303.11
2019-03-12T00:28:09.312Z,99303.79
2019-03-12T00:30:38.955Z,99303.11
2019-03-12T00:33:08.511Z,99299.77
2019-03-12T00:35:38.048Z,99293.77
2019-03-12T00:38:07.706Z,99294.59
2019-03-12T00:40:37.282Z,99298.42
2019-03-12T00:43:06.924Z,99293.42
2019-03-12T00:45:36.448Z,99293.43
2019-03-12T00:48:06.034Z,99296.42
2019-03-12T00:50:35.579Z,99299.59
2019-03-12T00:53:05.227Z,99296.74
2019-03-12T00:55:34.787Z,99293.73
2019-03-12T00:58:04.316Z,99288.89
2019-03-12T01:00:33.892Z,99293.74
2019-03-12T01:03:03.524Z,99283.55
2019-03-12T01:05:33.143Z,99282.70
2019-03-12T01:08:02.697Z,99283.38
2019-03-12T01:10:32.333Z,99281.70
2019-03-12T01:13:01.880Z,99288.34
2019-03-12T01:15:31.429Z,99280.53
2019-03-12T01:18:01.100Z,99287.70
2019-03-12T01:20:30.741Z,99287.70
2019-03-12T01:23:00.316Z,99286.03
2019-03-12T01:25:30.119Z,99288.31
2019-03-12T01:27:59.760Z,99285.44
2019-03-12T01:30:29.336Z,99266.27
2019-03-12T01:32:58.967Z,99270.90
2019-03-12T01:35:28.702Z,99263.73
2019-03-12T01:37:58.210Z,99269.41
2019-03-12T01:40:27.791Z,99266.25
2019-03-12T01:42:57.427Z,99264.28
2019-03-12T01:45:26.979Z,99270.11
2019-03-12T01:47:56.555Z,99275.27
2019-03-12T01:50:26.091Z,99278.27
2019-03-12T01:52:55.738Z,99273.59
2019-03-12T01:55:25.262Z,99276.58
2019-03-12T01:57:54.843Z,99269.88
2019-03-12T02:00:24.382Z,99273.91
2019-03-12T02:02:53.948Z,99272.55
2019-03-12T02:05:23.738Z,99271.85
2019-03-12T02:07:53.291Z,99277.67
2019-03-12T02:10:23.005Z,99272.03
2019-03-12T02:12:52.604Z,99269.34
2019-03-12T02:15:22.160Z,99273.18
2019-03-12T02:17:51.820Z,99265.19
2019-03-12T02:20:21.582Z,99271.81
2019-03-12T02:22:51.163Z,99267.48
2019-03-12T02:25:20.907Z,99270.64
2019-03-12T02:27:50.491Z,99272.44
2019-03-12T02:30:20.229Z,99271.38
2019-03-12T02:32:49.780Z,99269.70
2019-03-12T02:35:19.473Z,99277.20
2019-03-12T02:37:49.060Z,99277.36
2019-03-12T02:40:18.617Z,99276.67
2019-03-12T02:42:48.190Z,99273.02
2019-03-12T02:45:17.779Z,99268.03
2019-03-12T02:47:47.501Z,99269.02
2019-03-12T02:50:17.186Z,99268.00
2019-03-12T02:52:46.841Z,99264.84
2019-03-12T02:55:16.458Z,99275.22
2019-03-12T02:57:46.074Z,99275.00
2019-03-12T03:00:18.681Z,99279.34
2019-03-12T03:02:48.321Z,99282.05
2019-03-12T03:05:18.029Z,99279.69
2019-03-12T03:07:52.710Z,99279.49
2019-03-12T03:10:22.569Z,99283.98
2019-03-12T03:12:52.404Z,99289.70
2019-03-12T03:15:26.973Z,99280.70
2019-03-12T03:17:56.608Z,99283.67
2019-03-12T03:20:26.245Z,99287.98
2019-03-12T03:22:55.948Z,99277.85
2019-03-12T03:25:25.537Z,99283.67
2019-03-12T03:27:55.164Z,99289.31
2019-03-12T03:30:24.969Z,99289.00
2019-03-12T03:32:54.901Z,99288.32
2019-03-12T03:35:24.468Z,99288.66
2019-03-12T03:37:54.039Z,99285.66
2019-03-12T03:40:23.794Z,99287.33
2019-03-12T03:42:53.360Z,99292.97
2019-03-12T03:45:23.001Z,99295.97
2019-03-12T03:47:52.634Z,99296.66
2019-03-12T03:50:22.200Z,99294.60
2019-03-12T03:52:51.845Z,99295.14
2019-03-12T03:55:21.455Z,99303.97
2019-03-12T03:57:51.143Z,99311.66
2019-03-12T04:00:21.676Z,99306.14
2019-03-12T04:02:51.358Z,99316.61
2019-03-12T04:05:20.917Z,99318.28
2019-03-12T04:07:50.476Z,99323.61
2019-03-12T04:10:20.056Z,99325.09
2019-03-12T04:12:49.835Z,99336.94
2019-03-12T04:15:19.487Z,99348.88
2019-03-12T04:17:49.108Z,99348.48
2019-03-12T04:20:18.744Z,99355.48
2019-03-12T04:22:48.408Z,99363.92
2019-03-12T04:25:17.973Z,99363.07
2019-03-12T04:27:47.658Z,99365.05
2019-03-12T04:30:17.271Z,99352.37
2019-03-12T04:32:46.870Z,99362.95
2019-03-12T04:35:18.198Z,99363.23
2019-03-12T04:37:47.865Z,99358.90
2019-03-12T04:40:17.645Z,99359.88
2019-03-12T04:42:47.269Z,99368.31
2019-03-12T04:45:17.173Z,99372.48
2019-03-12T04:47:46.801Z,99366.47
2019-03-12T04:50:16.831Z,99367.45
2019-03-12T04:52:46.527Z,99378.45
2019-03-12T04:55:16.127Z,99375.16
2019-03-12T04:57:45.775Z,99382.66
2019-03-12T05:00:16.738Z,99380.97
2019-03-12T05:02:46.315Z,99378.11
2019-03-12T05:05:16.063Z,99383.16
2019-03-12T05:07:45.825Z,99383.20
2019-03-12T05:10:15.501Z,99387.45
2019-03-12T05:12:45.269Z,99386.11
2019-03-12T05:15:14.965Z,99394.84
2019-03-12T05:17:44.980Z,99399.84
2019-03-12T05:20:14.988Z,99402.09
2019-03-12T05:22:44.603Z,99405.34
2019-03-12T05:25:14.376Z,99412.64
2019-03-12T05:27:43.978Z,99407.58
2019-03-12T05:30:16.150Z,99420.91
2019-03-12T05:32:45.745Z,99420.14
2019-03-12T05:35:15.508Z,99432.09
2019-03-12T05:37:45.199Z,99443.30
2019-03-12T05:40:14.785Z,99443.63
2019-03-12T05:42:44.403Z,99441.53
2019-03-12T05:45:14.118Z,99447.74
2019-03-12T05:47:43.676Z,99442.67
2019-03-12T05:50:13.321Z,99441.94
2019-03-12T05:52:42.838Z,99461.27
2019-03-12T05:55:12.446Z,99465.36
2019-03-12T05:57:42.044Z,99474.17
2019-03-12T06:00:13.223Z,99477.11
2019-03-12T06:02:42.875Z,99483.55
2019-03-12T06:05:15.083Z,99476.72
2019-03-12T06:07:44.761Z,99493.20
2019-03-12T06:10:14.407Z,99494.53
2019-03-12T06:12:43.971Z,99496.08
2019-03-12T06:15:13.542Z,99493.48
2019-03-12T06:17:43.122Z,99493.34
2019-03-12T06:20:12.710Z,99503.48
2019-03-12T06:22:42.253Z,99512.13
2019-03-12T06:25:11.927Z,99505.24
2019-03-12T06:27:41.584Z,99506.64
2019-03-12T06:30:11.983Z,99510.06
2019-03-12T06:33:03.119Z,99515.73
2019-03-12T06:35:54.568Z,99512.45
2019-03-12T06:38:34.317Z,99517.83
2019-03-12T06:41:25.545Z,99513.56
2019-03-12T06:44:16.825Z,99514.90
2019-03-12T06:47:01.572Z,99514.08
2019-03-12T06:49:56.033Z,99516.95
2019-03-12T06:52:33.908Z,99519.86
2019-03-12T06:55:18.709Z,99521.42
2019-03-12T06:58:41.985Z,99526.46
2019-03-12T07:01:48.688Z,99551.37
2019-03-12T07:04:26.115Z,99552.98
2019-03-12T07:07:20.479Z,99582.05
2019-03-12T07:10:26.915Z,99592.53
2019-03-12T07:13:18.300Z,99600.34
2019-03-12T07:15:52.711Z,99597.87
2019-03-12T07:18:44.123Z,99602.17
2019-03-12T07:21:29.812Z,99605.19
2019-03-12T07:24:17.845Z,99608.11
2019-03-12T07:27:21.598Z,99617.50
2019-03-12T07:30:08.418Z,99629.81
2019-03-12T07:32:56.468Z,99632.16
2019-03-12T07:35:45.049Z,99638.45
2019-03-12T07:38:39.485Z,99635.52
2019-03-12T07:41:26.510Z,99585.71
2019-03-12T07:43:58.511Z,99633.55
2019-03-12T07:46:52.995Z,99640.11
2019-03-12T07:49:40.050Z,99647.11
2019-03-12T07:52:31.393Z,99653.81
2019-03-12T07:55:17.737Z,99651.38
2019-03-12T07:58:12.129Z,99657.02
2019-03-12T08:01:00.564Z,99656.14
2019-03-12T08:03:44.465Z,99663.84
2019-03-12T08:06:39.164Z,99673.47
2019-03-12T08:09:20.791Z,99688.99
2019-03-12T08:12:12.206Z,99683.77
2019-03-12T08:15:22.666Z,99695.08
2019-03-12T08:17:55.904Z,99701.92
2019-03-12T08:20:50.097Z,99703.70
2019-03-12T08:23:30.789Z,99704.39
2019-03-12T08:26:25.260Z,99711.41
2019-03-12T08:29:13.761Z,99723.69
2019-03-12T08:32:11.505Z,99719.29
2019-03-12T08:34:59.940Z,99717.89
2019-03-12T08:37:47.292Z,99726.02
2019-03-12T08:40:30.053Z,99732.59
2019-03-12T08:43:33.722Z,99734.79
2019-03-12T08:46:37.650Z,99755.14
2019-03-12T08:49:27.133Z,99748.86
2019-03-12T08:52:14.370Z,99742.07
2019-03-12T08:54:54.466Z,99755.14
2019-03-12T08:57:47.413Z,99763.10
2019-03-12T09:00:34.610Z,99768.70
2019-03-12T09:03:32.067Z,99763.16
2019-03-12T09:06:17.966Z,99782.83
2019-03-12T09:09:03.844Z,99788.50
2019-03-12T09:11:42.270Z,99788.42
2019-03-12T09:14:33.784Z,99784.98
2019-03-12T09:17:20.966Z,99784.20
2019-03-12T09:20:27.678Z,99786.92
2019-03-12T09:23:11.087Z,99791.38
2019-03-12T09:26:02.080Z,99798.31
2019-03-12T09:28:45.642Z,99800.18
2019-03-12T09:31:46.213Z,99801.20
2019-03-12T09:34:25.138Z,99792.70
2019-03-12T09:37:13.508Z,99803.77
2019-03-12T09:40:07.106Z,99805.45
2019-03-12T09:42:51.784Z,99806.10
2019-03-12T09:45:30.627Z,99809.93
2019-03-12T09:48:33.991Z,99813.95
2019-03-12T09:51:11.406Z,99820.84
2019-03-12T09:53:59.073Z,99819.31
2019-03-12T09:56:47.464Z,99828.02
2019-03-12T09:59:34.421Z,99821.84
2019-03-12T10:02:11.524Z,99832.13
2019-03-12T10:04:59.771Z,99836.75
2019-03-12T10:07:54.115Z,99841.74
2019-03-12T10:10:34.466Z,99838.20
2019-03-12T10:13:21.640Z,99845.12
2019-03-12T10:16:08.780Z,99844.59
2019-03-12T10:19:15.197Z,99848.64
2019-03-12T10:21:56.141Z,99853.00
2019-03-12T10:24:42.113Z,99850.78
2019-03-12T10:27:48.933Z,99855.17
2019-03-12T10:30:41.313Z,99850.61
2019-03-12T10:33:25.993Z,99855.89
2019-03-12T10:36:06.764Z,99855.66
2019-03-12T10:39:18.077Z,99854.12
2019-03-12T10:42:02.172Z,99860.27
2019-03-12T10:44:38.050Z,99862.94
2019-03-12T10:47:11.884Z,99867.41
2019-03-12T10:49:41.578Z,99858.76
2019-03-12T10:52:11.177Z,99861.34
2019-03-12T10:54:40.747Z,99845.16
2019-03-12T10:57:10.412Z,99846.83
2019-03-12T10:59:40.034Z,99848.66
2019-03-12T11:02:09.630Z,99850.07
2019-03-12T11:04:39.309Z,99851.59
2019-03-12T11:07:16.367Z,99849.36
2019-03-12T11:09:40.230Z,99853.39
2019-03-12T11:12:09.932Z,99853.25
2019-03-12T11:14:39.710Z,99854.81
2019-03-12T11:17:09.329Z,99854.61
2019-03-12T11:19:38.891Z,99861.69
2019-03-12T11:22:08.542Z,99867.56
2019-03-12T11:24:38.378Z,99880.34
2019-03-12T11:27:07.931Z,99884.61
2019-03-12T11:29:37.600Z,99886.52
2019-03-12T11:32:07.311Z,99881.19
2019-03-12T11:34:38.588Z,99882.72
2019-03-12T11:37:08.546Z,99885.86
2019-03-12T11:39:38.169Z,99878.77
2019-03-12T11:42:07.730Z,99884.44
2019-03-12T11:44:37.373Z,99877.66
2019-03-12T11:47:06.927Z,99869.55
2019-03-12T11:49:36.554Z,99866.45
2019-03-12T11:52:06.180Z,99866.72
2019-03-12T11:54:36.700Z,99874.30
2019-03-12T11:57:06.282Z,99871.91
2019-03-12T11:59:35.922Z,99860.23
2019-03-12T12:02:05.527Z,99865.74
2019-03-12T12:04:35.070Z,99873.69
2019-03-12T12:07:04.689Z,99859.23
2019-03-12T12:09:34.357Z,99874.69
2019-03-12T12:12:03.925Z,99874.51
2019-03-12T12:14:33.473Z,99878.38
2019-03-12T12:17:03.077Z,99886.07
2019-03-12T12:19:32.686Z,99881.86
2019-03-12T12:22:02.238Z,99883.19
2019-03-12T12:24:34.969Z,99883.85
2019-03-12T12:27:04.649Z,99895.48
2019-03-12T12:29:34.364Z,99900.94
2019-03-12T12:32:03.967Z,99894.37
2019-03-12T12:34:33.541Z,99887.63
2019-03-12T12:37:03.439Z,99882.38
2019-03-12T12:39:33.036Z,99882.86
2019-03-12T12:42:02.604Z,99881.16
2019-03-12T12:44:32.283Z,99878.19
2019-03-12T12:47:01.829Z,99874.75
2019-03-12T12:49:31.396Z,99866.87
2019-03-12T12:52:01.030Z,99873.31
2019-03-12T12:54:30.703Z,99866.70
2019-03-12T12:57:00.288Z,99870.98
2019-03-12T12:59:29.835Z,99868.97
2019-03-12T13:01:59.394Z,99867.20
2019-03-12T13:04:28.975Z,99866.80
2019-03-12T13:06:58.533Z,99867.78
2019-03-12T13:09:28.109Z,99868.84
2019-03-12T13:11:57.662Z,99867.25
2019-03-12T13:14:27.217Z,99870.31
2019-03-12T13:16:56.769Z,99867.62
2019-03-12T13:19:26.487Z,99866.11
2019-03-12T13:21:56.053Z,99858.27
2019-03-12T13:24:25.602Z,99861.58
2019-03-12T13:26:55.145Z,99860.54
2019-03-12T13:29:24.727Z,99853.95
2019-03-12T13:31:54.267Z,99855.91
2019-03-12T13:34:23.839Z,99863.76
2019-03-12T13:48:16.564Z,99848.59
2019-03-12T13:50:47.263Z,99832.93
2019-03-12T13:53:16.919Z,99829.62
2019-03-12T13:55:46.491Z,99829.77
2019-03-12T13:58:16.076Z,99820.82
2019-03-12T14:00:45.626Z,99827.28
2019-03-12T14:03:15.216Z,99828.72
2019-03-12T14:05:44.932Z,99840.25
2019-03-12T14:08:14.622Z,99847.49
2019-03-12T14:10:44.207Z,99844.34
2019-03-12T14:13:13.782Z,99850.04
2019-03-12T14:15:43.350Z,99858.81
2019-03-12T14:18:13.038Z,99864.84
2019-03-12T14:20:47.167Z,99845.89
2019-03-12T14:23:19.622Z,99852.14
2019-03-12T14:25:49.362Z,99843.58
2019-03-12T14:28:18.941Z,99852.64
2019-03-12T14:30:48.532Z,99851.17
2019-03-12T14:33:18.194Z,99847.87
2019-03-12T14:35:51.734Z,99852.90
2019-03-12T14:38:19.379Z,99852.00
2019-03-12T14:40:48.878Z,99849.69
2019-03-12T14:43:18.440Z,99855.02
2019-03-12T14:45:51.836Z,99853.69
2019-03-12T14:48:58.427Z,99858.89
2019-03-12T14:51:46.749Z,99863.52
2019-03-12T14:54:16.384Z,99859.87
2019-03-12T14:56:46.085Z,99868.12
2019-03-12T14:59:15.682Z,99874.56
2019-03-12T15:01:45.260Z,99877.09
2019-03-12T15:04:15.302Z,99873.31
2019-03-12T15:06:45.147Z,99875.26
2019-03-12T15:09:15.926Z,99886.41
2019-03-12T15:11:45.527Z,99887.39
2019-03-12T15:14:15.174Z,99886.28
2019-03-12T15:16:44.879Z,99891.61
2019-03-12T15:19:14.492Z,99883.97
2019-03-12T15:21:44.034Z,99884.67
2019-03-12T15:24:13.599Z,99888.02
2019-03-12T15:26:43.176Z,99881.70
2019-03-12T15:29:12.905Z,99884.23
2019-03-12T15:31:42.485Z,99887.11
2019-03-12T15:34:12.073Z,99893.07
2019-03-12T15:36:45.108Z,99890.41
2019-03-12T15:39:12.976Z,99894.75
2019-03-12T15:41:42.630Z,99898.97
2019-03-12T15:44:12.185Z,99891.03
2019-03-12T15:46:41.839Z,99892.67
2019-03-12T15:49:11.509Z,99900.23
2019-03-12T15:51:41.655Z,99901.20
2019-03-12T15:54:11.349Z,99907.47
2019-03-12T15:56:40.929Z,99898.19
2019-03-12T15:59:10.564Z,99909.50
2019-03-12T16:01:40.117Z,99914.48
2019-03-12T16:04:09.766Z,99913.77
2019-03-12T16:06:39.342Z,99912.66
2019-03-12T16:09:08.984Z,99917.06
2019-03-12T16:11:38.561Z,99921.98
2019-03-12T16:14:08.159Z,99925.75
2019-03-12T16:16:37.727Z,99933.80
2019-03-12T16:19:07.435Z,99939.82
2019-03-12T16:21:37.142Z,99948.03
2019-03-12T16:24:06.781Z,99941.84
2019-03-12T16:26:36.397Z,99946.59
2019-03-12T16:29:06.034Z,99947.31
2019-03-12T16:31:35.600Z,99954.45
2019-03-12T16:34:05.265Z,99963.02
2019-03-12T16:36:34.904Z,99969.19
2019-03-12T16:39:05.408Z,99978.30
2019-03-12T16:41:35.025Z,99975.91
2019-03-12T16:44:04.724Z,99974.57
2019-03-12T16:46:37.318Z,99979.58
2019-03-12T16:49:07.006Z,99991.20
2019-03-12T16:51:36.614Z,99994.28
2019-03-12T16:54:06.271Z,99997.38
2019-03-12T16:56:45.077Z,99994.97
2019-03-12T16:59:08.807Z,100000.07
2019-03-12T17:01:38.589Z,100002.25
2019-03-12T17:04:08.168Z,99994.35
2019-03-12T17:06:37.855Z,100001.37
2019-03-12T17:09:07.521Z,100003.70
2019-03-12T17:11:37.159Z,100008.35
2019-03-12T17:14:06.735Z,100008.06
2019-03-12T17:16:36.418Z,100016.34
2019-03-12T17:19:06.122Z,100023.97
2019-03-12T17:21:35.644Z,100022.28
2019-03-12T17:24:05.365Z,100027.73
2019-03-12T17:26:34.934Z,100031.38
2019-03-12T17:29:04.500Z,100029.81
2019-03-12T17:31:34.068Z,100032.70
2019-03-12T17:34:03.637Z,100032.12
2019-03-12T17:36:33.199Z,100035.27
2019-03-12T17:39:02.796Z,100032.48
2019-03-12T17:41:32.469Z,100028.42
2019-03-12T17:44:02.064Z,100024.78
2019-03-12T17:46:31.703Z,100027.34
2019-03-12T17:49:01.374Z,100025.59
2019-03-12T17:51:30.967Z,100030.75
2019-03-12T17:54:00.605Z,100035.95
2019-03-12T17:56:30.216Z,100036.24
2019-03-12T17:58:59.750Z,100046.34
2019-03-12T18:01:30.365Z,100045.20
2019-03-12T18:03:59.970Z,100050.19
2019-03-12T18:06:29.700Z,100046.98
2019-03-12T18:08:59.305Z,100056.48
2019-03-12T18:11:28.931Z,100055.93
2019-03-12T18:13:58.485Z,100059.14
2019-03-12T18:16:39.945Z,100054.67
2019-03-12T18:18:59.348Z,100055.93
2019-03-12T18:21:28.966Z,100055.83
2019-03-12T18:23:58.571Z,100060.66
2019-03-12T18:26:28.149Z,100063.20
2019-03-12T18:28:59.347Z,100061.80
2019-03-12T18:31:29.108Z,100058.84
2019-03-12T18:33:58.740Z,100066.70
2019-03-12T18:36:28.380Z,100071.28
2019-03-12T18:38:57.934Z,100080.67
2019-03-12T18:41:27.575Z,100083.44
2019-03-12T18:43:57.967Z,100084.58
2019-03-12T18:46:30.340Z,100082.05
2019-03-12T18:49:02.171Z,100083.48
2019-03-12T18:51:34.049Z,100077.61
2019-03-12T18:54:03.601Z,100084.87
2019-03-12T18:56:35.829Z,100084.23
2019-03-12T18:59:06.553Z,100081.47
2019-03-12T19:01:36.171Z,100072.09
2019-03-12T19:04:05.828Z,100083.52
2019-03-12T19:06:35.396Z,100089.62
2019-03-12T19:09:06.074Z,100083.95
2019-03-12T19:11:37.537Z,100090.95
2019-03-12T19:14:06.948Z,100099.60
2019-03-12T19:16:36.543Z,100095.34
2019-03-12T19:19:06.109Z,100107.46
2019-03-12T19:21:35.909Z,100113.56
2019-03-12T19:24:05.583Z,100107.63
2019-03-12T19:26:35.242Z,100107.01
2019-03-12T19:29:04.847Z,100108.70
2019-03-12T19:32:03.788Z,100114.55
2019-03-12T19:34:35.480Z,100118.28
2019-03-12T19:37:05.175Z,100114.80
2019-03-12T19:39:35.175Z,100119.16
2019-03-12T19:42:04.776Z,100124.77
2019-03-12T19:44:34.440Z,100129.61
2019-03-12T19:47:04.781Z,100129.84
2019-03-12T19:49:34.557Z,100133.02
2019-03-12T19:52:04.327Z,100127.08
2019-03-12T19:54:33.894Z,100128.83
2019-03-12T19:57:03.457Z,100122.59
2019-03-12T19:59:33.028Z,100124.34
2019-03-12T20:02:15.259Z,100129.67
2019-03-12T20:04:46.789Z,100132.34
2019-03-12T20:07:06.243Z,100142.52
2019-03-12T20:10:28.694Z,100151.09
2019-03-12T20:13:34.180Z,100159.09
2019-03-12T20:16:50.351Z,100168.31
2019-03-12T20:20:09.395Z,100172.67
2019-03-12T20:23:14.492Z,100178.78
2019-03-12T20:26:21.095Z,100178.09
2019-03-12T20:29:39.189Z,100178.55
2019-03-12T20:32:51.074Z,100172.70
2019-03-12T20:36:10.294Z,100171.02
2019-03-12T20:39:25.636Z,100167.92
2019-03-12T20:42:44.054Z,100180.36
2019-03-12T20:46:00.382Z,100177.95
2019-03-12T20:49:11.006Z,100180.16
2019-03-12T20:52:26.484Z,100185.77
2019-03-12T20:55:35.687Z,100183.95
2019-03-12T20:58:57.601Z,100191.09
2019-03-12T21:02:14.194Z,100186.48
2019-03-12T21:05:23.957Z,100190.81
2019-03-12T21:08:33.399Z,100185.58
2019-03-12T21:11:55.130Z,100191.17
2019-03-12T21:15:14.429Z,100189.53
2019-03-12T21:18:22.153Z,100180.34
2019-03-12T21:21:36.614Z,100181.98
2019-03-12T21:24:35.531Z,100180.88
2019-03-12T21:28:10.181Z,100180.03
2019-03-12T21:30:39.834Z,100170.95
2019-03-12T21:33:15.256Z,100170.66
2019-03-12T21:35:40.752Z,100172.34
2019-03-12T21:38:10.373Z,100168.53
2019-03-12T21:40:40.038Z,100174.93
2019-03-12T21:43:09.604Z,100167.55
2019-03-12T21:45:39.171Z,100173.73
2019-03-12T21:48:08.788Z,100170.22
2019-03-12T21:50:38.348Z,100173.37
2019-03-12T21:53:07.932Z,100168.27
2019-03-12T21:55:37.988Z,100165.97
2019-03-12T21:58:07.745Z,100164.89
2019-03-12T22:00:37.307Z,100165.18
2019-03-12T22:03:06.855Z,100163.79
2019-03-12T22:05:36.487Z,100164.02
2019-03-12T22:08:06.155Z,100167.04
2019-03-12T22:10:35.800Z,100168.86
2019-03-12T22:13:05.369Z,100172.63
2019-03-12T22:15:34.952Z,100166.77
2019-03-12T22:18:04.604Z,100165.86
2019-03-12T22:20:34.185Z,100168.69
2019-03-12T22:23:11.423Z,100174.80
2019-03-12T22:25:41.069Z,100172.50
2019-03-12T22:28:10.793Z,100173.34
2019-03-12T22:30:40.732Z,100171.88
2019-03-12T22:33:10.433Z,100171.66
2019-03-12T22:35:40.212Z,100175.16
2019-03-12T22:38:09.960Z,100177.41
2019-03-12T22:40:39.549Z,100176.30
2019-03-12T22:43:09.151Z,100175.95
2019-03-12T22:45:38.729Z,100184.61
2019-03-12T22:48:08.462Z,100182.38
2019-03-12T22:50:38.046Z,100182.58
2019-03-12T22:53:07.635Z,100182.41
2019-03-12T22:55:37.228Z,100187.48
2019-03-12T22:58:06.892Z,100188.92
2019-03-12T23:00:40.327Z,100184.59
2019-03-12T23:03:09.991Z,100182.91
2019-03-12T23:05:39.619Z,100192.23
2019-03-12T23:08:09.352Z,100188.59
2019-03-12T23:10:39.411Z,100194.56
2019-03-12T23:13:08.980Z,100193.23
2019-03-12T23:15:38.568Z,100196.16
2019-03-12T23:18:08.146Z,100194.36
2019-03-12T23:20:37.835Z,100195.08
2019-03-12T23:23:07.420Z,100199.36
2019-03-12T23:25:37.953Z,100193.22
2019-03-12T23:28:07.634Z,100191.45
2019-03-12T23:30:37.177Z,100197.77
2019-03-12T23:33:06.757Z,100198.91
2019-03-12T23:35:36.315Z,100195.52
2019-03-12T23:38:06.077Z,100191.05
2019-03-12T23:40:35.750Z,100194.27
2019-03-12T23:43:08.534Z,100190.63
2019-03-12T23:45:38.229Z,100191.28
2019-03-12T23:48:07.912Z,100188.87
2019-03-12T23:50:37.485Z,100194.55
2019-03-12T23:53:07.161Z,100189.23
2019-03-12T23:55:36.803Z,100193.66
2019-03-12T23:58:06.420Z,100193.05
